Time;durP1;ratioP1;P1;durP2;ratioP2;P2;SDS_P1;SDS_P2;PMS_P1;PMS_P2;Temp;Humidity;BMP_temperature;BMP_pressure;BME280_temperature;BME280_humidity;BME280_pressure;Samples;Min_cycle;Max_cycle;Signal;HPM_P1;HPM_P2
2022/12/08 00:02:00;;;;;;;34.70;16.38;;;;;;;;;;5022417;28;20061;-68
2022/12/08 00:04:25;;;;;;;40.25;17.83;;;;;;;;;;5027266;28;20099;-68
2022/12/08 00:09:35;;;;;;;38.22;17.00;;;;;;;;;;5028062;28;20055;-68
2022/12/08 00:12:02;;;;;;;40.75;17.90;;;;;;;;;;5035440;28;20093;-68
2022/12/08 00:14:29;;;;;;;38.97;19.73;;;;;;;;;;5029208;28;20068;-68
2022/12/08 00:16:54;;;;;;;40.38;19.88;;;;;;;;;;5041274;28;20418;-68
2022/12/08 00:19:20;;;;;;;42.55;18.88;;;;;;;;;;5034039;28;20052;-68
2022/12/08 00:21:45;;;;;;;43.30;18.85;;;;;;;;;;5031727;28;20270;-68
2022/12/08 00:24:10;;;;;;;37.03;16.52;;;;;;;;;;5020468;28;20060;-68
2022/12/08 00:26:36;;;;;;;32.88;14.98;;;;;;;;;;5035162;28;20129;-68
2022/12/08 00:29:01;;;;;;;37.58;17.23;;;;;;;;;;5019688;28;20028;-68
2022/12/08 00:31:26;;;;;;;35.45;16.83;;;;;;;;;;5027469;28;20488;-68
2022/12/08 00:33:52;;;;;;;32.05;13.02;;;;;;;;;;5040843;28;20108;-68
2022/12/08 00:36:17;;;;;;;36.75;16.73;;;;;;;;;;5043025;28;20503;-68
2022/12/08 00:38:43;;;;;;;36.28;17.70;;;;;;;;;;5028246;28;20033;-68
2022/12/08 00:41:14;;;;;;;38.08;16.13;;;;;;;;;;5018407;28;20036;-68
2022/12/08 00:43:39;;;;;;;42.00;17.45;;;;;;;;;;5026776;28;20017;-68
2022/12/08 00:46:04;;;;;;;42.38;19.20;;;;;;;;;;5035568;28;20017;-68
2022/12/08 00:48:29;;;;;;;39.67;21.83;;;;;;;;;;5025461;28;20818;-68
2022/12/08 00:50:55;;;;;;;38.00;16.02;;;;;;;;;;5025484;28;20028;-68
2022/12/08 00:53:20;;;;;;;34.43;16.50;;;;;;;;;;5029795;28;20040;-68
2022/12/08 00:55:45;;;;;;;34.67;17.08;;;;;;;;;;5024544;28;20331;-68
2022/12/08 00:58:10;;;;;;;40.23;16.20;;;;;;;;;;5019990;23;20049;-72
2022/12/08 01:00:35;;;;;;;35.58;15.52;;;;;;;;;;5018693;28;20279;-68
2022/12/08 01:03:00;;;;;;;38.53;20.43;;;;;;;;;;5010303;28;20510;-70
2022/12/08 01:05:26;;;;;;;36.70;15.97;;;;;;;;;;5010478;28;20271;-68
2022/12/08 01:07:51;;;;;;;43.20;19.63;;;;;;;;;;5015303;28;20287;-72
2022/12/08 01:10:16;;;;;;;35.97;16.57;;;;;;;;;;5022223;28;20493;-67
2022/12/08 01:12:41;;;;;;;42.85;16.35;;;;;;;;;;5014174;28;20279;-67
2022/12/08 01:15:07;;;;;;;36.88;16.30;;;;;;;;;;5020322;28;20072;-69
2022/12/08 01:17:32;;;;;;;34.85;16.27;;;;;;;;;;5008211;28;20025;-67
2022/12/08 01:19:58;;;;;;;35.17;17.98;;;;;;;;;;5010082;28;20049;-70
2022/12/08 01:22:23;;;;;;;37.40;17.27;;;;;;;;;;5013251;28;20382;-70
2022/12/08 01:24:48;;;;;;;44.90;19.15;;;;;;;;;;5020256;28;20033;-70
2022/12/08 01:27:14;;;;;;;40.35;17.83;;;;;;;;;;5013933;28;20018;-68
2022/12/08 01:29:39;;;;;;;39.67;19.45;;;;;;;;;;5022348;28;20482;-70
2022/12/08 01:32:04;;;;;;;43.22;18.60;;;;;;;;;;4999458;28;20034;-67
2022/12/08 01:34:30;;;;;;;40.17;20.23;;;;;;;;;;5009205;28;20021;-69
2022/12/08 01:36:55;;;;;;;44.80;20.15;;;;;;;;;;5008325;28;20153;-67
2022/12/08 01:39:20;;;;;;;37.40;17.10;;;;;;;;;;5033603;28;20541;-68
2022/12/08 01:41:46;;;;;;;35.30;16.27;;;;;;;;;;5024352;28;20288;-67
2022/12/08 01:44:11;;;;;;;36.15;17.10;;;;;;;;;;5012465;28;20026;-68
2022/12/08 01:46:38;;;;;;;34.97;15.35;;;;;;;;;;5005742;28;20056;-67
2022/12/08 01:49:03;;;;;;;30.98;16.13;;;;;;;;;;5001468;28;20495;-67
2022/12/08 01:51:31;;;;;;;37.30;18.23;;;;;;;;;;5011710;28;20044;-67
2022/12/08 01:53:56;;;;;;;33.95;16.90;;;;;;;;;;5008768;28;20101;-70
2022/12/08 01:56:32;;;;;;;30.92;13.73;;;;;;;;;;5020890;28;20461;-70
2022/12/08 01:58:58;;;;;;;39.88;17.20;;;;;;;;;;5003205;28;20789;-70
2022/12/08 02:01:23;;;;;;;46.75;19.20;;;;;;;;;;5003179;28;20032;-67
2022/12/08 02:03:54;;;;;;;44.17;20.55;;;;;;;;;;4999494;28;20026;-73
2022/12/08 02:06:19;;;;;;;37.63;19.73;;;;;;;;;;5017338;28;20026;-67
2022/12/08 02:08:45;;;;;;;40.97;18.88;;;;;;;;;;5014523;28;20052;-70
2022/12/08 02:11:11;;;;;;;44.83;19.95;;;;;;;;;;5017661;28;20014;-70
2022/12/08 02:13:36;;;;;;;40.88;18.00;;;;;;;;;;5002811;28;20017;-67
2022/12/08 02:16:07;;;;;;;43.20;19.85;;;;;;;;;;5011025;28;20034;-68
2022/12/08 02:18:33;;;;;;;43.03;19.45;;;;;;;;;;5001271;28;20026;-67
2022/12/08 02:20:58;;;;;;;33.38;17.25;;;;;;;;;;5006095;28;20033;-68
2022/12/08 02:23:32;;;;;;;44.88;20.58;;;;;;;;;;5008867;28;20379;-67
2022/12/08 02:26:07;;;;;;;37.63;17.33;;;;;;;;;;5008076;28;20260;-68
2022/12/08 02:28:41;;;;;;;40.53;16.15;;;;;;;;;;5005129;28;20148;-67
2022/12/08 02:31:16;;;;;;;36.13;17.48;;;;;;;;;;4995087;28;20019;-68
2022/12/08 02:34:00;;;;;;;34.47;15.25;;;;;;;;;;5000738;28;20026;-67
2022/12/08 02:36:43;;;;;;;29.40;13.20;;;;;;;;;;5017747;28;20477;-67
2022/12/08 02:39:14;;;;;;;28.23;13.38;;;;;;;;;;5004503;28;20057;-68
2022/12/08 02:41:51;;;;;;;27.30;13.85;;;;;;;;;;5002611;28;20018;-67
2022/12/08 02:44:20;;;;;;;29.30;11.60;;;;;;;;;;5000614;28;21973;-70
2022/12/08 02:46:57;;;;;;;34.03;13.90;;;;;;;;;;5005215;28;20118;-67
2022/12/08 02:49:29;;;;;;;22.90;12.38;;;;;;;;;;5003239;28;20014;-70
2022/12/08 02:52:04;;;;;;;26.65;13.30;;;;;;;;;;5011856;28;20057;-67
2022/12/08 02:54:29;;;;;;;25.55;12.13;;;;;;;;;;5015051;28;20427;-69
2022/12/08 02:57:16;;;;;;;16.92;8.48;;;;;;;;;;5025051;28;20117;-69
2022/12/08 02:59:42;;;;;;;29.40;12.50;;;;;;;;;;4998634;28;20463;-68
2022/12/08 03:02:07;;;;;;;36.35;14.10;;;;;;;;;;5010335;28;20077;-68
2022/12/08 03:04:32;;;;;;;23.58;11.00;;;;;;;;;;5011190;28;20272;-69
2022/12/08 03:07:00;;;;;;;23.23;9.77;;;;;;;;;;5011275;28;20268;-68
2022/12/08 03:09:57;;;;;;;23.58;10.02;;;;;;;;;;5002850;28;20364;-68
2022/12/08 03:12:27;;;;;;;27.45;13.30;;;;;;;;;;4999115;28;20034;-70
2022/12/08 03:14:54;;;;;;;33.17;13.98;;;;;;;;;;5002448;28;20385;-67
2022/12/08 03:17:21;;;;;;;27.67;13.93;;;;;;;;;;5005580;28;20029;-68
2022/12/08 03:19:47;;;;;;;23.35;11.75;;;;;;;;;;5013517;28;20497;-67
2022/12/08 03:22:14;;;;;;;26.23;13.10;;;;;;;;;;5012543;28;20026;-67
2022/12/08 03:24:42;;;;;;;13.45;6.88;;;;;;;;;;5003003;28;20018;-70
2022/12/08 03:27:12;;;;;;;23.10;11.32;;;;;;;;;;4998708;28;20652;-67
2022/12/08 03:29:38;;;;;;;20.30;9.13;;;;;;;;;;5004132;28;20466;-69
2022/12/08 03:32:10;;;;;;;21.20;10.88;;;;;;;;;;5015289;28;20028;-67
2022/12/08 03:34:37;;;;;;;20.67;11.15;;;;;;;;;;5008655;28;20160;-72
2022/12/08 03:37:02;;;;;;;21.30;10.13;;;;;;;;;;5006232;28;20026;-70
2022/12/08 03:39:27;;;;;;;23.35;11.13;;;;;;;;;;5003438;28;20022;-67
2022/12/08 03:41:53;;;;;;;23.23;11.27;;;;;;;;;;5003389;28;20104;-70
2022/12/08 03:44:18;;;;;;;25.35;12.75;;;;;;;;;;5003733;28;20029;-70
2022/12/08 03:46:43;;;;;;;27.53;11.83;;;;;;;;;;5014418;28;20390;-71
2022/12/08 03:49:08;;;;;;;20.88;11.68;;;;;;;;;;5011327;28;20272;-68
2022/12/08 03:51:33;;;;;;;20.08;11.23;;;;;;;;;;5011982;28;20010;-67
2022/12/08 03:53:59;;;;;;;22.30;11.23;;;;;;;;;;5003418;28;20041;-67
2022/12/08 03:56:25;;;;;;;19.50;11.98;;;;;;;;;;4999306;28;20145;-68
2022/12/08 03:58:51;;;;;;;19.40;9.80;;;;;;;;;;4961025;28;1057479;-71
2022/12/08 04:01:16;;;;;;;21.55;11.35;;;;;;;;;;5005103;28;20026;-68
2022/12/08 04:03:41;;;;;;;19.85;9.30;;;;;;;;;;5006656;28;20030;-70
2022/12/08 04:06:06;;;;;;;21.20;9.75;;;;;;;;;;5008616;28;20573;-68
2022/12/08 04:08:32;;;;;;;22.38;10.23;;;;;;;;;;5010507;28;20271;-67
2022/12/08 04:10:57;;;;;;;17.08;9.15;;;;;;;;;;4999775;28;20056;-68
2022/12/08 04:13:22;;;;;;;19.20;10.65;;;;;;;;;;5012559;28;20026;-68
2022/12/08 04:15:48;;;;;;;23.73;10.60;;;;;;;;;;5004537;28;20028;-69
2022/12/08 04:18:13;;;;;;;31.98;12.55;;;;;;;;;;4999528;28;20360;-70
2022/12/08 04:20:39;;;;;;;29.90;12.02;;;;;;;;;;4999476;28;20022;-67
2022/12/08 04:23:05;;;;;;;29.38;15.73;;;;;;;;;;5005686;28;20076;-67
2022/12/08 04:25:30;;;;;;;25.48;13.35;;;;;;;;;;5007248;28;20014;-67
2022/12/08 04:27:55;;;;;;;26.77;13.43;;;;;;;;;;5003609;28;20049;-70
2022/12/08 04:30:20;;;;;;;25.05;12.05;;;;;;;;;;5002721;28;20316;-67
2022/12/08 04:32:45;;;;;;;25.67;12.77;;;;;;;;;;5010548;28;20046;-71
2022/12/08 04:35:11;;;;;;;26.00;11.73;;;;;;;;;;4992888;28;20030;-67
2022/12/08 04:37:36;;;;;;;32.60;13.20;;;;;;;;;;4997721;28;20060;-70
2022/12/08 04:40:01;;;;;;;20.40;11.27;;;;;;;;;;5017137;28;20329;-67
2022/12/08 04:42:26;;;;;;;26.90;11.57;;;;;;;;;;5007064;28;20033;-69
2022/12/08 04:44:51;;;;;;;13.50;5.57;;;;;;;;;;4998679;28;20064;-68
2022/12/08 04:47:17;;;;;;;20.25;10.07;;;;;;;;;;5004869;28;20272;-71
2022/12/08 04:49:42;;;;;;;25.48;11.07;;;;;;;;;;5000358;28;20017;-68
2022/12/08 04:52:07;;;;;;;23.33;10.43;;;;;;;;;;5005575;28;20298;-69
2022/12/08 04:54:32;;;;;;;28.27;11.93;;;;;;;;;;5009545;28;20301;-71
2022/12/08 04:56:57;;;;;;;18.05;8.68;;;;;;;;;;5007360;28;20329;-68
2022/12/08 04:59:23;;;;;;;24.33;12.67;;;;;;;;;;5010421;28;20061;-70
2022/12/08 05:01:48;;;;;;;23.02;11.32;;;;;;;;;;5005458;28;20295;-69
2022/12/08 05:04:13;;;;;;;23.97;12.20;;;;;;;;;;5005111;28;20026;-69
2022/12/08 05:06:38;;;;;;;24.33;11.40;;;;;;;;;;5005301;28;20848;-69
2022/12/08 05:09:03;;;;;;;20.60;9.23;;;;;;;;;;5008609;28;20279;-69
2022/12/08 05:11:28;;;;;;;22.05;8.60;;;;;;;;;;5011425;28;20678;-68
2022/12/08 05:13:54;;;;;;;25.37;13.33;;;;;;;;;;5004376;28;20030;-71
2022/12/08 05:16:19;;;;;;;27.40;12.95;;;;;;;;;;5003143;28;20280;-69
2022/12/08 05:18:44;;;;;;;25.33;12.03;;;;;;;;;;5000405;28;20093;-73
2022/12/08 05:21:09;;;;;;;27.88;12.52;;;;;;;;;;5000194;28;20280;-71
2022/12/08 05:23:35;;;;;;;25.45;12.48;;;;;;;;;;5000433;28;20022;-72
2022/12/08 05:26:00;;;;;;;32.08;12.13;;;;;;;;;;5001074;28;20410;-69
2022/12/08 05:28:25;;;;;;;33.08;13.50;;;;;;;;;;5000545;28;20018;-71
2022/12/08 05:30:50;;;;;;;28.40;11.40;;;;;;;;;;4991982;28;20395;-75
2022/12/08 05:33:16;;;;;;;29.60;12.93;;;;;;;;;;4994030;28;20104;-72
2022/12/08 05:35:41;;;;;;;27.75;14.20;;;;;;;;;;4996244;28;20029;-68
2022/12/08 05:38:07;;;;;;;33.92;11.88;;;;;;;;;;4999177;28;20061;-68
2022/12/08 05:40:32;;;;;;;37.90;15.95;;;;;;;;;;5002720;28;20037;-69
2022/12/08 05:42:57;;;;;;;35.55;13.48;;;;;;;;;;5001705;28;20536;-69
2022/12/08 05:45:22;;;;;;;35.10;15.73;;;;;;;;;;4992368;28;20027;-69
2022/12/08 05:47:48;;;;;;;38.65;14.15;;;;;;;;;;4994016;28;20284;-69
2022/12/08 05:50:13;;;;;;;32.65;12.98;;;;;;;;;;4996303;28;20116;-69
2022/12/08 05:52:38;;;;;;;37.50;17.67;;;;;;;;;;4997912;28;20442;-69
2022/12/08 05:55:03;;;;;;;46.05;19.83;;;;;;;;;;4998969;28;20037;-69
2022/12/08 05:57:29;;;;;;;40.22;19.40;;;;;;;;;;4995607;28;20026;-69
2022/12/08 05:59:55;;;;;;;55.25;20.92;;;;;;;;;;4995533;28;20114;-69
2022/12/08 06:02:21;;;;;;;56.45;23.00;;;;;;;;;;4992473;28;20037;-69
2022/12/08 06:04:46;;;;;;;60.28;24.33;;;;;;;;;;4997526;28;20403;-69
2022/12/08 06:07:11;;;;;;;54.47;22.92;;;;;;;;;;4999166;28;20501;-69
2022/12/08 06:09:36;;;;;;;45.30;21.93;;;;;;;;;;4995028;28;20030;-69
2022/12/08 06:12:02;;;;;;;52.50;22.35;;;;;;;;;;4997056;28;20277;-69
2022/12/08 06:14:27;;;;;;;56.08;21.80;;;;;;;;;;4994431;28;20458;-69
2022/12/08 06:16:53;;;;;;;47.23;21.07;;;;;;;;;;4997176;28;20026;-69
2022/12/08 06:19:18;;;;;;;51.37;22.80;;;;;;;;;;4994169;28;20288;-69
2022/12/08 06:21:43;;;;;;;55.65;21.73;;;;;;;;;;4998698;28;20769;-69
2022/12/08 06:24:08;;;;;;;53.88;21.38;;;;;;;;;;4998546;28;20018;-69
2022/12/08 06:26:34;;;;;;;46.72;19.35;;;;;;;;;;4992425;28;20077;-69
2022/12/08 06:29:00;;;;;;;49.90;24.38;;;;;;;;;;4989734;28;20025;-69
2022/12/08 06:31:25;;;;;;;50.08;20.48;;;;;;;;;;5000850;28;20022;-69
2022/12/08 06:33:51;;;;;;;53.10;21.85;;;;;;;;;;4999544;28;20018;-69
2022/12/08 06:36:17;;;;;;;42.08;18.23;;;;;;;;;;4996671;28;20518;-69
2022/12/08 06:38:42;;;;;;;45.28;18.67;;;;;;;;;;5005421;28;20113;-69
2022/12/08 06:41:08;;;;;;;49.50;20.63;;;;;;;;;;5001552;28;20105;-69
2022/12/08 06:43:33;;;;;;;42.38;18.77;;;;;;;;;;5008225;28;20032;-69
2022/12/08 06:45:59;;;;;;;50.83;19.90;;;;;;;;;;5003148;28;20550;-69
2022/12/08 06:48:24;;;;;;;49.13;18.67;;;;;;;;;;5006130;28;20045;-70
2022/12/08 06:50:49;;;;;;;39.20;18.38;;;;;;;;;;5007727;28;20017;-70
2022/12/08 06:53:15;;;;;;;51.78;24.52;;;;;;;;;;5007350;28;20030;-71
2022/12/08 06:55:44;;;;;;;47.22;20.42;;;;;;;;;;5005686;28;20089;-70
2022/12/08 06:58:10;;;;;;;48.75;19.80;;;;;;;;;;5000658;28;20061;-71
2022/12/08 07:00:35;;;;;;;51.40;25.25;;;;;;;;;;4999939;28;20037;-69
2022/12/08 07:03:00;;;;;;;48.88;22.75;;;;;;;;;;4996675;28;20026;-70
2022/12/08 07:05:25;;;;;;;67.53;27.42;;;;;;;;;;5003414;28;20020;-71
2022/12/08 07:07:51;;;;;;;53.22;21.48;;;;;;;;;;5005945;28;20045;-71
2022/12/08 07:10:16;;;;;;;48.78;21.35;;;;;;;;;;5025404;28;20083;-70
2022/12/08 07:12:41;;;;;;;54.88;20.65;;;;;;;;;;5008681;28;20034;-69
2022/12/08 07:15:07;;;;;;;57.70;20.40;;;;;;;;;;5011575;28;20026;-70
2022/12/08 07:17:32;;;;;;;57.80;18.98;;;;;;;;;;5011568;28;20028;-70
2022/12/08 07:19:57;;;;;;;50.95;21.38;;;;;;;;;;5005306;28;20030;-70
2022/12/08 07:22:22;;;;;;;42.63;20.85;;;;;;;;;;5009270;28;20100;-70
2022/12/08 07:24:48;;;;;;;50.65;20.67;;;;;;;;;;5003509;28;20022;-70
2022/12/08 07:27:13;;;;;;;51.08;21.52;;;;;;;;;;5000716;28;20036;-71
2022/12/08 07:29:38;;;;;;;50.42;20.02;;;;;;;;;;5005081;28;20022;-69
2022/12/08 07:32:03;;;;;;;56.90;20.60;;;;;;;;;;5003864;28;20395;-70
2022/12/08 07:34:28;;;;;;;48.70;20.70;;;;;;;;;;5006593;28;20093;-70
2022/12/08 07:36:54;;;;;;;53.78;21.02;;;;;;;;;;5014630;28;20045;-70
2022/12/08 07:39:19;;;;;;;59.03;22.30;;;;;;;;;;4998085;28;20026;-70
2022/12/08 07:41:44;;;;;;;53.63;22.75;;;;;;;;;;4998700;28;20021;-70
2022/12/08 07:44:09;;;;;;;59.17;26.05;;;;;;;;;;5006295;28;20022;-70
2022/12/08 07:46:35;;;;;;;44.42;19.70;;;;;;;;;;5001191;28;20018;-70
2022/12/08 07:49:00;;;;;;;47.25;19.05;;;;;;;;;;5002064;28;20057;-70
2022/12/08 07:51:25;;;;;;;47.08;21.02;;;;;;;;;;5005146;28;20010;-70
2022/12/08 07:53:51;;;;;;;58.42;20.50;;;;;;;;;;5002248;28;20022;-70
2022/12/08 07:56:16;;;;;;;39.17;17.30;;;;;;;;;;5003669;28;21683;-69
2022/12/08 07:58:44;;;;;;;44.80;17.88;;;;;;;;;;5005228;28;20041;-70
2022/12/08 08:01:23;;;;;;;40.00;19.55;;;;;;;;;;5014982;28;20081;-70
2022/12/08 08:03:49;;;;;;;38.42;17.95;;;;;;;;;;5004746;28;20053;-69
2022/12/08 08:06:14;;;;;;;38.35;16.65;;;;;;;;;;5015866;28;20131;-69
2022/12/08 08:08:40;;;;;;;32.28;15.77;;;;;;;;;;5003699;28;20022;-70
2022/12/08 08:11:05;;;;;;;21.08;8.88;;;;;;;;;;4998944;28;20140;-69
2022/12/08 08:13:31;;;;;;;29.42;10.75;;;;;;;;;;4999843;28;20030;-70
2022/12/08 08:16:01;;;;;;;28.58;12.48;;;;;;;;;;5001471;28;20040;-70
2022/12/08 08:18:26;;;;;;;32.88;13.75;;;;;;;;;;4992531;28;20030;-70
2022/12/08 08:20:52;;;;;;;31.60;13.52;;;;;;;;;;5002564;28;20018;-69
2022/12/08 08:23:17;;;;;;;34.10;13.35;;;;;;;;;;5003307;28;20030;-70
2022/12/08 08:25:42;;;;;;;42.00;15.48;;;;;;;;;;5014302;28;20022;-70
2022/12/08 08:28:07;;;;;;;33.40;14.05;;;;;;;;;;5008481;28;20034;-70
2022/12/08 08:30:33;;;;;;;42.22;17.00;;;;;;;;;;5006192;28;20021;-70
2022/12/08 08:32:59;;;;;;;43.97;21.73;;;;;;;;;;5014463;28;20056;-69
2022/12/08 08:35:24;;;;;;;39.47;18.00;;;;;;;;;;5009837;28;20030;-70
2022/12/08 08:37:49;;;;;;;48.85;17.35;;;;;;;;;;5007433;28;20049;-70
2022/12/08 08:40:15;;;;;;;43.55;18.98;;;;;;;;;;5005748;28;20026;-69
2022/12/08 08:42:40;;;;;;;41.28;16.83;;;;;;;;;;5007876;28;20034;-70
2022/12/08 08:45:06;;;;;;;35.17;16.30;;;;;;;;;;5004543;28;20025;-70
2022/12/08 08:47:31;;;;;;;42.13;18.45;;;;;;;;;;5010143;28;20379;-70
2022/12/08 08:49:56;;;;;;;39.25;17.65;;;;;;;;;;5019425;28;20081;-70
2022/12/08 08:52:21;;;;;;;37.53;17.58;;;;;;;;;;5005387;28;20028;-70
2022/12/08 08:54:47;;;;;;;47.58;21.08;;;;;;;;;;5017515;28;20390;-69
2022/12/08 08:57:12;;;;;;;39.83;17.53;;;;;;;;;;5012575;28;20022;-70
2022/12/08 08:59:37;;;;;;;34.33;15.18;;;;;;;;;;5002398;28;20375;-70
2022/12/08 09:02:02;;;;;;;28.60;11.23;;;;;;;;;;5009442;28;20036;-70
2022/12/08 09:04:28;;;;;;;43.33;14.50;;;;;;;;;;5007401;28;20483;-70
2022/12/08 09:06:53;;;;;;;40.00;16.33;;;;;;;;;;5012961;28;20061;-70
2022/12/08 09:09:18;;;;;;;39.60;15.57;;;;;;;;;;4997010;28;20462;-70
2022/12/08 09:11:44;;;;;;;37.08;17.63;;;;;;;;;;4998494;28;20405;-70
2022/12/08 09:14:10;;;;;;;45.42;17.20;;;;;;;;;;4995199;28;20037;-70
2022/12/08 09:16:35;;;;;;;33.45;15.07;;;;;;;;;;5002768;28;20030;-70
2022/12/08 09:19:01;;;;;;;37.00;16.15;;;;;;;;;;5000217;28;20077;-70
2022/12/08 09:21:26;;;;;;;31.95;14.48;;;;;;;;;;4998011;28;20034;-70
2022/12/08 09:23:53;;;;;;;23.08;10.88;;;;;;;;;;4997311;28;20026;-68
2022/12/08 09:26:21;;;;;;;34.13;16.83;;;;;;;;;;5011371;28;20022;-70
2022/12/08 09:28:46;;;;;;;30.15;14.45;;;;;;;;;;5009476;28;20023;-70
2022/12/08 09:31:18;;;;;;;23.35;10.95;;;;;;;;;;5000475;28;20048;-70
2022/12/08 09:33:43;;;;;;;22.00;11.90;;;;;;;;;;5011076;28;20030;-70
2022/12/08 09:36:09;;;;;;;35.42;15.25;;;;;;;;;;5012356;28;20026;-70
2022/12/08 09:38:34;;;;;;;34.00;13.27;;;;;;;;;;5009000;28;20017;-70
2022/12/08 09:41:01;;;;;;;28.60;12.68;;;;;;;;;;5007612;28;20406;-70
2022/12/08 09:43:26;;;;;;;28.52;11.27;;;;;;;;;;5004841;28;20022;-69
2022/12/08 09:45:52;;;;;;;17.57;7.73;;;;;;;;;;5009036;28;20033;-69
2022/12/08 09:48:18;;;;;;;26.27;13.18;;;;;;;;;;5003803;28;20305;-70
2022/12/08 09:50:52;;;;;;;28.23;12.18;;;;;;;;;;5007402;28;20490;-70
2022/12/08 09:53:20;;;;;;;28.65;11.73;;;;;;;;;;5007922;28;20105;-70
2022/12/08 09:55:48;;;;;;;26.65;11.88;;;;;;;;;;5003262;28;20026;-70
2022/12/08 09:58:19;;;;;;;23.17;10.23;;;;;;;;;;5004932;28;20052;-70
2022/12/08 10:00:44;;;;;;;34.75;11.95;;;;;;;;;;4999842;28;20030;-71
2022/12/08 10:03:10;;;;;;;30.08;12.82;;;;;;;;;;4998809;28;20413;-69
2022/12/08 10:05:38;;;;;;;31.23;11.35;;;;;;;;;;5003826;28;20033;-70
2022/12/08 10:08:26;;;;;;;21.52;9.63;;;;;;;;;;5001906;28;20026;-69
2022/12/08 10:11:03;;;;;;;9.63;5.20;;;;;;;;;;5004083;28;20033;-68
2022/12/08 10:13:42;;;;;;;20.40;9.90;;;;;;;;;;5007297;28;20037;-69
2022/12/08 10:16:29;;;;;;;20.52;9.68;;;;;;;;;;5019044;28;20025;-70
2022/12/08 10:18:59;;;;;;;17.30;8.32;;;;;;;;;;5010521;28;20133;-69
2022/12/08 10:21:26;;;;;;;24.45;8.43;;;;;;;;;;5014324;28;20026;-69
2022/12/08 10:24:08;;;;;;;16.98;7.70;;;;;;;;;;5006868;28;20022;-69
2022/12/08 10:26:33;;;;;;;14.55;5.32;;;;;;;;;;5008639;28;20018;-69
2022/12/08 10:29:01;;;;;;;21.63;8.85;;;;;;;;;;5005302;28;20068;-69
2022/12/08 10:31:31;;;;;;;19.58;9.57;;;;;;;;;;5004776;28;20034;-69
2022/12/08 10:33:58;;;;;;;20.75;9.48;;;;;;;;;;5005896;28;20040;-70
2022/12/08 10:36:43;;;;;;;18.45;9.40;;;;;;;;;;5008858;28;20053;-69
2022/12/08 10:39:28;;;;;;;24.50;10.77;;;;;;;;;;5000905;28;20022;-69
2022/12/08 10:41:58;;;;;;;21.20;10.40;;;;;;;;;;4999837;28;20100;-69
2022/12/08 10:44:23;;;;;;;;;;;;;;;;;;5011787;28;20468;-70
2022/12/08 10:46:49;;;;;;;26.85;11.20;;;;;;;;;;5006477;28;20480;-69
2022/12/08 10:49:23;;;;;;;19.95;7.13;;;;;;;;;;5011891;28;20018;-70
2022/12/08 10:51:48;;;;;;;30.23;11.55;;;;;;;;;;5009010;28;20026;-69
2022/12/08 10:54:24;;;;;;;34.92;12.18;;;;;;;;;;5014898;28;20029;-69
2022/12/08 10:56:54;;;;;;;30.38;11.98;;;;;;;;;;5009578;28;20022;-70
2022/12/08 10:59:19;;;;;;;31.33;12.40;;;;;;;;;;5007381;28;20049;-69
2022/12/08 11:01:45;;;;;;;38.22;14.27;;;;;;;;;;5014789;28;20263;-70
2022/12/08 11:04:31;;;;;;;34.17;15.43;;;;;;;;;;5014060;28;20406;-69
2022/12/08 11:06:56;;;;;;;33.78;15.80;;;;;;;;;;5009330;28;20037;-69
2022/12/08 11:09:31;;;;;;;27.67;12.88;;;;;;;;;;5006226;28;20478;-70
2022/12/08 11:11:57;;;;;;;33.15;13.43;;;;;;;;;;5014722;28;20026;-69
2022/12/08 11:14:22;;;;;;;29.23;12.50;;;;;;;;;;5009614;28;20505;-69
2022/12/08 11:16:49;;;;;;;24.40;11.27;;;;;;;;;;5010817;28;20023;-69
2022/12/08 11:19:15;;;;;;;31.58;11.63;;;;;;;;;;5011741;28;20018;-69
2022/12/08 11:21:41;;;;;;;35.13;12.45;;;;;;;;;;5016305;28;20152;-70
2022/12/08 11:24:24;;;;;;;28.85;11.45;;;;;;;;;;5011183;28;20022;-68
2022/12/08 11:27:01;;;;;;;25.90;11.63;;;;;;;;;;5006507;28;20057;-69
2022/12/08 11:29:27;;;;;;;22.13;9.73;;;;;;;;;;5018608;28;20394;-69
2022/12/08 11:31:58;;;;;;;24.00;11.05;;;;;;;;;;5007713;28;20395;-69
2022/12/08 11:34:29;;;;;;;26.88;9.07;;;;;;;;;;5009901;28;20073;-69
2022/12/08 11:36:55;;;;;;;21.63;9.77;;;;;;;;;;5016348;28;20091;-69
2022/12/08 11:39:21;;;;;;;19.63;6.50;;;;;;;;;;5007425;28;20069;-68
2022/12/08 11:41:46;;;;;;;26.08;8.45;;;;;;;;;;5002886;28;20103;-69
2022/12/08 11:44:14;;;;;;;17.23;6.65;;;;;;;;;;5013979;28;20037;-69
2022/12/08 11:46:45;;;;;;;18.98;7.25;;;;;;;;;;5008493;28;20030;-69
2022/12/08 11:49:10;;;;;;;;;;;;;;;;;;5002857;28;20668;-69
2022/12/08 11:51:47;;;;;;;15.25;6.03;;;;;;;;;;5014130;28;20390;-70
2022/12/08 11:54:32;;;;;;;20.00;7.70;;;;;;;;;;5009995;28;20340;-69
2022/12/08 11:56:59;;;;;;;16.73;6.65;;;;;;;;;;5006908;28;20044;-69
2022/12/08 11:59:31;;;;;;;17.30;5.65;;;;;;;;;;5007373;28;20030;-69
2022/12/08 12:01:58;;;;;;;18.92;7.32;;;;;;;;;;5011360;28;20313;-69
2022/12/08 12:04:23;;;;;;;14.85;7.15;;;;;;;;;;5010640;28;20032;-69
2022/12/08 12:07:18;;;;;;;16.70;7.27;;;;;;;;;;5013279;28;20078;-69
2022/12/08 12:10:02;;;;;;;17.50;7.47;;;;;;;;;;4975908;28;20426;-69
2022/12/08 12:12:34;;;;;;;21.55;9.43;;;;;;;;;;5010845;28;20045;-69
2022/12/08 12:15:06;;;;;;;24.00;9.88;;;;;;;;;;5012091;28;20053;-68
2022/12/08 12:17:34;;;;;;;22.98;9.20;;;;;;;;;;5010536;28;20442;-69
2022/12/08 12:20:02;;;;;;;16.58;8.52;;;;;;;;;;5011062;28;20022;-69
2022/12/08 12:22:29;;;;;;;21.17;8.95;;;;;;;;;;5007969;28;20033;-69
2022/12/08 12:24:55;;;;;;;22.23;9.23;;;;;;;;;;5011908;28;20026;-69
2022/12/08 12:27:22;;;;;;;29.00;9.70;;;;;;;;;;5008664;28;20092;-68
2022/12/08 12:29:51;;;;;;;23.08;9.52;;;;;;;;;;5009864;28;20014;-69
2022/12/08 12:32:16;;;;;;;23.70;9.63;;;;;;;;;;5000269;28;20489;-68
2022/12/08 12:34:55;;;;;;;21.33;8.00;;;;;;;;;;5004195;28;20107;-69
2022/12/08 12:37:26;;;;;;;23.88;9.27;;;;;;;;;;5002307;28;20036;-69
2022/12/08 12:39:51;;;;;;;;;;;;;;;;;;5006373;28;20097;-69
2022/12/08 12:42:35;;;;;;;21.15;8.18;;;;;;;;;;5003418;28;19910;-70
2022/12/08 12:45:11;;;;;;;20.27;7.95;;;;;;;;;;5009989;28;20394;-69
2022/12/08 12:47:44;;;;;;;15.85;7.22;;;;;;;;;;5001079;28;20010;-69
2022/12/08 12:50:11;;;;;;;22.70;9.98;;;;;;;;;;5008134;28;20489;-69
2022/12/08 12:52:36;;;;;;;18.50;8.90;;;;;;;;;;5004578;28;20034;-70
2022/12/08 12:55:01;;;;;;;21.88;10.52;;;;;;;;;;5009982;28;20394;-69
2022/12/08 12:57:37;;;;;;;23.50;11.23;;;;;;;;;;5004869;28;20022;-69
2022/12/08 13:00:02;;;;;;;29.38;12.18;;;;;;;;;;5008219;28;20479;-69
2022/12/08 13:02:28;;;;;;;26.37;13.00;;;;;;;;;;4990478;28;20026;-70
2022/12/08 13:04:56;;;;;;;26.48;9.48;;;;;;;;;;5008023;28;20249;-70
2022/12/08 13:07:23;;;;;;;27.27;10.98;;;;;;;;;;4995912;28;20014;-69
2022/12/08 13:09:54;;;;;;;19.58;8.90;;;;;;;;;;4996370;28;20029;-70
2022/12/08 13:12:22;;;;;;;27.73;10.35;;;;;;;;;;4999913;28;20026;-70
2022/12/08 13:14:49;;;;;;;21.90;9.68;;;;;;;;;;5004340;28;20533;-70
2022/12/08 13:17:28;;;;;;;28.50;10.57;;;;;;;;;;4998904;28;20482;-69
2022/12/08 13:19:54;;;;;;;23.25;9.65;;;;;;;;;;5000117;28;20578;-69
2022/12/08 13:22:38;;;;;;;19.15;9.55;;;;;;;;;;5007237;28;20041;-69
2022/12/08 13:25:22;;;;;;;21.67;10.25;;;;;;;;;;4992829;28;20030;-69
2022/12/08 13:27:51;;;;;;;30.65;11.75;;;;;;;;;;4993901;28;20022;-69
2022/12/08 13:30:35;;;;;;;28.02;10.02;;;;;;;;;;5010738;28;20482;-69
2022/12/08 13:33:01;;;;;;;21.20;9.52;;;;;;;;;;4993849;28;20033;-70
2022/12/08 13:35:26;;;;;;;31.23;9.38;;;;;;;;;;5002697;28;20079;-69
2022/12/08 13:37:53;;;;;;;20.00;9.43;;;;;;;;;;5008563;28;20293;-69
2022/12/08 13:40:21;;;;;;;29.85;10.90;;;;;;;;;;4995170;28;20026;-69
2022/12/08 13:43:09;;;;;;;21.42;9.20;;;;;;;;;;5001239;28;20017;-69
2022/12/08 13:45:36;;;;;;;29.88;9.73;;;;;;;;;;4997220;28;20030;-69
2022/12/08 13:48:13;;;;;;;19.33;8.20;;;;;;;;;;5003730;28;20064;-70
2022/12/08 13:50:41;;;;;;;20.50;8.38;;;;;;;;;;4999117;28;20048;-69
2022/12/08 13:53:15;;;;;;;19.38;8.20;;;;;;;;;;5002948;28;20022;-70
2022/12/08 13:55:45;;;;;;;21.40;9.27;;;;;;;;;;4991273;28;20022;-69
2022/12/08 13:58:24;;;;;;;20.80;9.73;;;;;;;;;;4996233;28;20510;-69
2022/12/08 14:00:55;;;;;;;22.35;9.00;;;;;;;;;;5002603;28;20109;-70
2022/12/08 14:03:20;;;;;;;17.13;7.75;;;;;;;;;;4994529;28;20026;-69
2022/12/08 14:05:45;;;;;;;21.35;7.55;;;;;;;;;;5005800;28;20010;-70
2022/12/08 14:08:29;;;;;;;23.80;9.18;;;;;;;;;;4999838;28;20052;-69
2022/12/08 14:10:57;;;;;;;26.65;9.02;;;;;;;;;;4994474;28;20487;-69
2022/12/08 14:13:23;;;;;;;20.80;8.43;;;;;;;;;;4995549;28;20030;-69
2022/12/08 14:15:48;;;;;;;19.90;8.60;;;;;;;;;;5000424;28;20022;-68
2022/12/08 14:18:30;;;;;;;19.23;8.03;;;;;;;;;;4992662;28;20030;-68
2022/12/08 14:21:00;;;;;;;22.95;7.65;;;;;;;;;;4995504;28;20274;-68
2022/12/08 14:23:25;;;;;;;29.70;12.00;;;;;;;;;;5000222;28;20196;-68
2022/12/08 14:25:50;;;;;;;34.97;14.98;;;;;;;;;;4993655;28;20093;-68
2022/12/08 14:28:15;;;;;;;20.40;9.40;;;;;;;;;;5000531;28;20022;-68